createdAt,value
2022-09-22T00:00:07.554Z, 40.93
2022-09-22T00:01:07.660Z, 40.90
2022-09-22T00:02:07.666Z, 40.92
2022-09-22T00:03:07.655Z, 40.90
2022-09-22T00:04:07.633Z, 40.88
2022-09-22T00:05:07.669Z, 40.90
2022-09-22T00:06:07.750Z, 40.83
2022-09-22T00:07:07.923Z, 40.83
2022-09-22T00:08:07.796Z, 40.82
2022-09-22T00:09:07.930Z, 40.81
2022-09-22T00:10:08.034Z, 40.78
2022-09-22T00:11:08.034Z, 40.83
2022-09-22T00:12:08.042Z, 40.83
2022-09-22T00:13:08.039Z, 40.82
2022-09-22T00:14:08.263Z, 40.82
2022-09-22T00:15:08.178Z, 40.80
2022-09-22T00:16:08.222Z, 40.74
2022-09-22T00:17:08.181Z, 40.71
2022-09-22T00:18:08.184Z, 40.72
2022-09-22T00:19:08.207Z, 40.77
2022-09-22T00:20:08.322Z, 40.75
2022-09-22T00:21:08.348Z, 40.70
2022-09-22T00:22:08.458Z, 40.70
2022-09-22T00:23:08.460Z, 40.75
2022-09-22T00:24:08.461Z, 40.75
2022-09-22T00:25:08.461Z, 40.70
2022-09-22T00:26:08.468Z, 40.69
2022-09-22T00:27:08.486Z, 40.66
2022-09-22T00:28:08.605Z, 40.66
2022-09-22T00:29:08.667Z, 40.69
2022-09-22T00:30:08.627Z, 40.70
2022-09-22T00:31:08.679Z, 40.68
2022-09-22T00:32:08.716Z, 40.64
2022-09-22T00:33:08.746Z, 40.66
2022-09-22T00:34:08.744Z, 40.64
2022-09-22T00:35:08.773Z, 40.61
2022-09-22T00:36:08.879Z, 40.56
2022-09-22T00:37:08.884Z, 40.55
2022-09-22T00:38:08.881Z, 40.53
2022-09-22T00:39:08.916Z, 40.56
2022-09-22T00:40:08.988Z, 40.60
2022-09-22T00:41:08.965Z, 40.60
2022-09-22T00:42:08.972Z, 40.58
2022-09-22T00:43:08.981Z, 40.59
2022-09-22T00:44:08.993Z, 40.49
2022-09-22T00:45:09.143Z, 40.51
2022-09-22T00:46:09.330Z, 40.49
2022-09-22T00:47:09.321Z, 40.45
2022-09-22T00:48:09.314Z, 40.45
2022-09-22T00:49:09.316Z, 40.46
2022-09-22T00:50:09.326Z, 40.49
2022-09-22T00:51:09.330Z, 40.48
2022-09-22T00:52:09.488Z, 40.46
2022-09-22T00:53:09.486Z, 40.43
2022-09-22T00:54:09.491Z, 40.45
2022-09-22T00:55:09.490Z, 40.45
2022-09-22T00:56:09.491Z, 40.45
2022-09-22T00:57:09.521Z, 40.47
2022-09-22T00:58:09.519Z, 40.46
2022-09-22T00:59:09.659Z, 40.41
2022-09-22T01:00:09.666Z, 40.40
2022-09-22T01:01:09.769Z, 40.44
2022-09-22T01:02:09.689Z, 40.42
2022-09-22T01:03:09.672Z, 40.39
2022-09-22T01:04:09.833Z, 40.39
2022-09-22T01:05:09.838Z, 40.34
2022-09-22T01:06:09.830Z, 40.37
2022-09-22T01:07:09.862Z, 40.39
2022-09-22T01:08:10.004Z, 40.40
2022-09-22T01:09:10.003Z, 40.37
2022-09-22T01:10:10.002Z, 40.37
2022-09-22T01:11:10.008Z, 40.36
2022-09-22T01:12:10.014Z, 40.36
2022-09-22T01:13:10.012Z, 40.35
2022-09-22T01:14:10.175Z, 40.34
2022-09-22T01:15:10.182Z, 40.29
2022-09-22T01:16:10.228Z, 40.29
2022-09-22T01:17:10.173Z, 40.31
2022-09-22T01:18:10.214Z, 40.31
2022-09-22T01:19:10.349Z, 40.33
2022-09-22T01:20:10.356Z, 40.33
2022-09-22T01:21:10.354Z, 40.30
2022-09-22T01:22:10.355Z, 40.27
2022-09-22T01:23:10.524Z, 40.27
2022-09-22T01:24:10.381Z, 40.28
2022-09-22T01:25:10.522Z, 40.26
2022-09-22T01:26:10.523Z, 40.26
2022-09-22T01:27:10.529Z, 40.26
2022-09-22T01:28:10.524Z, 40.22
2022-09-22T01:29:10.528Z, 40.22
2022-09-22T01:30:10.696Z, 40.21
2022-09-22T01:31:10.737Z, 40.20
2022-09-22T01:32:10.705Z, 40.20
2022-09-22T01:33:10.870Z, 40.20
2022-09-22T01:34:10.873Z, 40.14
2022-09-22T01:35:10.866Z, 40.08
2022-09-22T01:36:10.881Z, 40.12
2022-09-22T01:37:10.867Z, 40.13
2022-09-22T01:38:11.039Z, 40.10
2022-09-22T01:39:11.048Z, 40.10
2022-09-22T01:40:11.122Z, 40.09
2022-09-22T01:41:11.042Z, 40.10
2022-09-22T01:42:11.037Z, 40.14
2022-09-22T01:43:11.041Z, 40.12
2022-09-22T01:44:11.041Z, 40.09
2022-09-22T01:45:11.210Z, 40.06
2022-09-22T01:46:11.248Z, 40.08
2022-09-22T01:47:11.216Z, 40.10
2022-09-22T01:48:11.216Z, 40.13
2022-09-22T01:49:11.223Z, 40.13
2022-09-22T01:50:11.217Z, 40.08
2022-09-22T01:51:11.247Z, 40.10
2022-09-22T01:52:11.384Z, 40.15
2022-09-22T01:53:11.391Z, 40.14
2022-09-22T01:54:11.386Z, 40.09
2022-09-22T01:55:11.420Z, 40.07
2022-09-22T01:56:11.385Z, 40.09
2022-09-22T01:57:11.414Z, 40.09
2022-09-22T01:58:11.562Z, 40.08
2022-09-22T01:59:11.560Z, 40.09
2022-09-22T02:00:11.565Z, 40.08
2022-09-22T02:01:14.565Z, 40.01
2022-09-22T02:02:11.702Z, 39.99
2022-09-22T02:03:11.627Z, 39.95
2022-09-22T02:04:11.618Z, 39.96
2022-09-22T02:05:11.627Z, 40.00
2022-09-22T02:06:11.634Z, 40.06
2022-09-22T02:07:11.639Z, 40.06
2022-09-22T02:08:11.654Z, 40.01
2022-09-22T02:09:11.691Z, 39.98
2022-09-22T02:10:11.732Z, 39.96
2022-09-22T02:11:11.771Z, 39.90
2022-09-22T02:12:11.810Z, 39.96
2022-09-22T02:13:11.870Z, 39.97
2022-09-22T02:14:11.898Z, 39.96
2022-09-22T02:15:11.886Z, 39.97
2022-09-22T02:16:12.173Z, 39.96
2022-09-22T02:17:12.019Z, 39.95
2022-09-22T02:18:12.055Z, 39.98
2022-09-22T02:19:13.393Z, 39.96
2022-09-22T02:20:12.055Z, 39.93
2022-09-22T02:21:12.109Z, 39.91
2022-09-22T02:22:12.188Z, 39.91
2022-09-22T02:23:12.169Z, 39.86
2022-09-22T02:24:12.167Z, 39.85
2022-09-22T02:25:12.228Z, 39.86
2022-09-22T02:26:12.272Z, 39.86
2022-09-22T02:27:12.307Z, 39.88
2022-09-22T02:28:12.341Z, 39.87
2022-09-22T02:29:12.414Z, 39.84
2022-09-22T02:30:12.468Z, 39.85
2022-09-22T02:31:20.410Z, 39.83
2022-09-22T02:32:12.542Z, 39.82
2022-09-22T02:33:12.572Z, 39.80
2022-09-22T02:34:12.545Z, 39.77
2022-09-22T02:35:12.637Z, 39.82
2022-09-22T02:36:12.603Z, 39.76
2022-09-22T02:37:12.698Z, 39.69
2022-09-22T02:38:12.675Z, 39.67
2022-09-22T02:39:12.679Z, 39.73
2022-09-22T02:40:12.762Z, 39.75
2022-09-22T02:41:12.815Z, 39.74
2022-09-22T02:42:12.869Z, 39.76
2022-09-22T02:43:12.905Z, 39.77
2022-09-22T02:44:12.945Z, 39.71
2022-09-22T02:45:12.935Z, 39.77
2022-09-22T02:46:12.985Z, 39.75
2022-09-22T02:47:12.949Z, 39.73
2022-09-22T02:48:13.064Z, 39.70
2022-09-22T02:49:13.090Z, 39.72
2022-09-22T02:50:13.061Z, 39.72
2022-09-22T02:51:13.163Z, 39.71
2022-09-22T02:52:13.172Z, 39.68
2022-09-22T02:53:13.138Z, 39.70
2022-09-22T02:54:13.229Z, 39.67
2022-09-22T02:55:13.197Z, 39.67
2022-09-22T02:56:13.315Z, 39.64
2022-09-22T02:57:13.300Z, 39.67
2022-09-22T02:58:13.306Z, 39.63
2022-09-22T02:59:13.405Z, 39.60
2022-09-22T03:00:13.393Z, 39.58
2022-09-22T03:01:13.485Z, 39.57
2022-09-22T03:02:13.479Z, 39.58
2022-09-22T03:03:13.564Z, 39.55
2022-09-22T03:04:13.555Z, 39.54
2022-09-22T03:05:13.663Z, 39.54
2022-09-22T03:06:13.589Z, 39.54
2022-09-22T03:07:13.669Z, 39.58
2022-09-22T03:08:13.645Z, 39.59
2022-09-22T03:09:13.681Z, 39.60
2022-09-22T03:10:13.726Z, 39.63
2022-09-22T03:11:13.753Z, 39.57
2022-09-22T03:12:13.828Z, 39.54
2022-09-22T03:13:17.369Z, 39.57
2022-09-22T03:14:13.886Z, 39.52
2022-09-22T03:15:13.875Z, 39.51
2022-09-22T03:16:14.025Z, 39.48
2022-09-22T03:17:13.929Z, 39.44
2022-09-22T03:18:13.978Z, 39.47
2022-09-22T03:19:14.006Z, 39.50
2022-09-22T03:20:14.100Z, 39.49
2022-09-22T03:21:14.137Z, 39.48
2022-09-22T03:22:14.171Z, 39.44
2022-09-22T03:23:14.167Z, 39.40
2022-09-22T03:24:14.170Z, 39.36
2022-09-22T03:25:14.212Z, 39.34
2022-09-22T03:26:14.332Z, 39.38
2022-09-22T03:27:14.363Z, 39.40
2022-09-22T03:28:14.322Z, 39.42
2022-09-22T03:29:14.355Z, 39.39
2022-09-22T03:30:14.381Z, 39.36
2022-09-22T03:31:14.454Z, 39.35
2022-09-22T03:32:14.451Z, 39.33
2022-09-22T03:33:14.532Z, 39.35
2022-09-22T03:34:14.517Z, 39.31
2022-09-22T03:35:14.555Z, 39.40
2022-09-22T03:36:14.608Z, 39.40
2022-09-22T03:37:14.614Z, 39.35
2022-09-22T03:38:14.641Z, 39.35
2022-09-22T03:39:14.680Z, 39.37
2022-09-22T03:40:14.806Z, 39.43
2022-09-22T03:41:14.772Z, 39.37
2022-09-22T03:42:14.866Z, 39.33
2022-09-22T03:43:16.757Z, 39.31
2022-09-22T03:44:14.878Z, 39.24
2022-09-22T03:45:14.921Z, 39.26
2022-09-22T03:46:15.139Z, 39.27
2022-09-22T03:47:15.010Z, 39.21
2022-09-22T03:48:15.021Z, 39.27
2022-09-22T03:49:15.060Z, 39.28
2022-09-22T03:50:15.152Z, 39.24
2022-09-22T03:51:15.190Z, 39.22
2022-09-22T03:52:15.175Z, 39.23
2022-09-22T03:53:15.202Z, 39.25
2022-09-22T03:54:15.276Z, 39.22
2022-09-22T03:55:15.322Z, 39.21
2022-09-22T03:56:15.313Z, 39.20
2022-09-22T03:57:15.373Z, 39.15
2022-09-22T03:58:15.368Z, 39.17
2022-09-22T03:59:15.543Z, 39.17
2022-09-22T04:00:15.460Z, 39.18
2022-09-22T04:01:15.494Z, 39.16
2022-09-22T04:02:15.594Z, 39.12
2022-09-22T04:03:15.513Z, 39.18
2022-09-22T04:04:15.581Z, 39.22
2022-09-22T04:05:15.587Z, 39.23
2022-09-22T04:06:15.614Z, 39.25
2022-09-22T04:07:15.707Z, 39.22
2022-09-22T04:08:15.678Z, 39.22
2022-09-22T04:09:15.693Z, 39.22
2022-09-22T04:10:15.747Z, 39.19
2022-09-22T04:11:15.805Z, 39.20
2022-09-22T04:12:15.820Z, 39.15
2022-09-22T04:13:15.908Z, 39.09
2022-09-22T04:14:15.887Z, 39.12
2022-09-22T04:15:15.919Z, 39.07
2022-09-22T04:16:15.997Z, 39.08
2022-09-22T04:17:15.966Z, 39.10
2022-09-22T04:18:16.002Z, 39.08
2022-09-22T04:19:16.107Z, 39.02
2022-09-22T04:20:16.128Z, 39.05
2022-09-22T04:21:16.127Z, 39.05
2022-09-22T04:22:16.145Z, 39.04
2022-09-22T04:23:16.150Z, 39.07
2022-09-22T04:24:16.249Z, 39.07
2022-09-22T04:25:16.263Z, 39.00
2022-09-22T04:26:16.257Z, 39.00
2022-09-22T04:27:20.095Z, 38.95
2022-09-22T04:28:16.348Z, 38.95
2022-09-22T04:29:16.442Z, 38.99
2022-09-22T04:30:16.434Z, 38.98
2022-09-22T04:31:16.496Z, 38.97
2022-09-22T04:32:16.520Z, 38.96
2022-09-22T04:33:16.551Z, 39.01
2022-09-22T04:34:16.604Z, 38.99
2022-09-22T04:35:16.625Z, 38.98
2022-09-22T04:36:16.651Z, 38.97
2022-09-22T04:37:16.686Z, 38.95
2022-09-22T04:38:16.716Z, 38.95
2022-09-22T04:39:20.386Z, 38.96
2022-09-22T04:40:16.840Z, 38.94
2022-09-22T04:41:16.794Z, 38.91
2022-09-22T04:42:16.830Z, 38.91
2022-09-22T04:43:16.935Z, 38.91
2022-09-22T04:44:16.986Z, 38.90
2022-09-22T04:45:16.968Z, 38.93
2022-09-22T04:46:17.102Z, 38.90
2022-09-22T04:47:17.021Z, 38.91
2022-09-22T04:48:17.041Z, 38.95
2022-09-22T04:49:17.092Z, 39.01
2022-09-22T04:50:17.131Z, 39.01
2022-09-22T04:51:17.187Z, 39.04
2022-09-22T04:52:17.203Z, 38.99
2022-09-22T04:53:17.230Z, 39.00
2022-09-22T04:54:17.280Z, 39.00
2022-09-22T04:55:17.292Z, 38.98
2022-09-22T04:56:17.385Z, 38.94
2022-09-22T04:57:20.432Z, 38.90
2022-09-22T04:58:17.395Z, 38.88
2022-09-22T04:59:17.415Z, 38.91
2022-09-22T05:00:17.517Z, 38.82
2022-09-22T05:01:17.569Z, 38.83
2022-09-22T05:02:17.505Z, 38.87
2022-09-22T05:03:21.429Z, 38.83
2022-09-22T05:04:17.623Z, 38.78
2022-09-22T05:05:17.657Z, 38.81
2022-09-22T05:06:17.645Z, 38.84
2022-09-22T05:07:17.677Z, 38.83
2022-09-22T05:08:17.761Z, 38.89
2022-09-22T05:09:17.743Z, 38.88
2022-09-22T05:10:17.828Z, 38.87
2022-09-22T05:11:17.797Z, 38.86
2022-09-22T05:12:17.833Z, 38.87
2022-09-22T05:13:17.873Z, 38.88
2022-09-22T05:14:20.557Z, 38.88
2022-09-22T05:15:17.950Z, 38.84
2022-09-22T05:16:18.022Z, 38.82
2022-09-22T05:17:18.030Z, 38.84
2022-09-22T05:18:18.023Z, 38.83
2022-09-22T05:19:18.158Z, 38.84
2022-09-22T05:20:18.142Z, 38.84
2022-09-22T05:21:18.175Z, 38.88
2022-09-22T05:22:18.199Z, 38.84
2022-09-22T05:23:18.285Z, 38.83
2022-09-22T05:24:18.284Z, 38.83
2022-09-22T05:25:18.311Z, 38.79
2022-09-22T05:26:18.361Z, 38.74
2022-09-22T05:27:18.372Z, 38.76
2022-09-22T05:28:18.396Z, 38.79
2022-09-22T05:29:18.455Z, 38.80
2022-09-22T05:30:18.493Z, 38.84
2022-09-22T05:31:18.617Z, 38.81
2022-09-22T05:32:18.612Z, 38.81
2022-09-22T05:33:18.604Z, 38.80
2022-09-22T05:34:18.610Z, 38.81
2022-09-22T05:35:18.656Z, 38.83
2022-09-22T05:36:18.702Z, 38.76
2022-09-22T05:37:18.740Z, 38.71
2022-09-22T05:38:18.766Z, 38.68
2022-09-22T05:39:18.784Z, 38.62
2022-09-22T05:40:18.913Z, 38.59
2022-09-22T05:41:18.851Z, 38.64
2022-09-22T05:42:18.896Z, 38.59
2022-09-22T05:43:18.939Z, 38.59
2022-09-22T05:44:18.993Z, 38.59
2022-09-22T05:45:19.079Z, 38.56
2022-09-22T05:46:19.213Z, 38.56
2022-09-22T05:47:19.084Z, 38.56
2022-09-22T05:48:19.124Z, 38.57
2022-09-22T05:49:19.125Z, 38.57
2022-09-22T05:50:19.259Z, 38.56
2022-09-22T05:51:19.240Z, 38.55
2022-09-22T05:52:19.239Z, 38.54
2022-09-22T05:53:19.270Z, 38.51
2022-09-22T05:54:23.258Z, 38.50
2022-09-22T05:55:19.366Z, 38.52
2022-09-22T05:56:19.367Z, 38.51
2022-09-22T05:57:19.462Z, 38.50
2022-09-22T05:58:19.447Z, 38.50
2022-09-22T05:59:19.537Z, 38.50
2022-09-22T06:00:19.564Z, 38.44
2022-09-22T06:01:19.646Z, 38.40
2022-09-22T06:02:26.104Z, 38.37
2022-09-22T06:03:19.588Z, 38.40
2022-09-22T06:04:19.698Z, 38.40
2022-09-22T06:05:19.740Z, 38.39
2022-09-22T06:06:19.725Z, 38.41
2022-09-22T06:07:19.822Z, 38.42
2022-09-22T06:08:19.811Z, 38.43
2022-09-22T06:09:19.886Z, 38.45
2022-09-22T06:10:19.860Z, 38.47
2022-09-22T06:11:19.856Z, 38.44
2022-09-22T06:12:19.908Z, 38.41
2022-09-22T06:13:20.026Z, 38.40
2022-09-22T06:14:19.993Z, 38.40
2022-09-22T06:15:20.054Z, 38.41
2022-09-22T06:16:20.156Z, 38.39
2022-09-22T06:17:20.115Z, 38.39
2022-09-22T06:18:24.685Z, 38.39
2022-09-22T06:19:20.158Z, 38.40
2022-09-22T06:20:20.251Z, 38.34
2022-09-22T06:21:20.249Z, 38.34
2022-09-22T06:22:20.251Z, 38.33
2022-09-22T06:23:20.347Z, 38.33
2022-09-22T06:24:20.387Z, 38.30
2022-09-22T06:25:20.362Z, 38.38
2022-09-22T06:26:20.469Z, 38.53
2022-09-22T06:27:20.446Z, 38.62
2022-09-22T06:28:20.462Z, 38.56
2022-09-22T06:29:20.505Z, 38.52
2022-09-22T06:30:20.554Z, 38.50
2022-09-22T06:31:20.654Z, 38.49
2022-09-22T06:32:20.608Z, 38.47
2022-09-22T06:33:20.698Z, 38.48
2022-09-22T06:34:20.727Z, 38.47
2022-09-22T06:35:20.761Z, 38.44
2022-09-22T06:36:20.803Z, 38.46
2022-09-22T06:37:20.789Z, 38.51
2022-09-22T06:38:20.805Z, 38.53
2022-09-22T06:39:20.825Z, 38.50
2022-09-22T06:40:21.017Z, 38.50
2022-09-22T06:41:20.890Z, 38.50
2022-09-22T06:42:20.923Z, 38.51
2022-09-22T06:43:20.963Z, 38.47
2022-09-22T06:44:20.999Z, 38.44
2022-09-22T06:45:21.028Z, 38.38
2022-09-22T06:46:21.124Z, 38.37
2022-09-22T06:47:21.104Z, 38.42
2022-09-22T06:48:21.160Z, 38.38
2022-09-22T06:49:21.157Z, 38.39
2022-09-22T06:50:21.201Z, 38.35
2022-09-22T06:51:21.258Z, 38.34
2022-09-22T06:52:21.277Z, 38.38
2022-09-22T06:53:24.554Z, 38.35
2022-09-22T06:54:23.519Z, 38.38
2022-09-22T06:55:21.397Z, 38.35
2022-09-22T06:56:21.417Z, 38.37
2022-09-22T06:57:21.402Z, 38.39
2022-09-22T06:58:21.405Z, 38.37
2022-09-22T06:59:21.854Z, 38.36
2022-09-22T07:00:21.554Z, 38.35
2022-09-22T07:01:21.646Z, 38.30
2022-09-22T07:02:21.671Z, 38.30
2022-09-22T07:03:21.670Z, 38.33
2022-09-22T07:04:21.687Z, 38.32
2022-09-22T07:05:21.741Z, 38.27
2022-09-22T07:06:21.801Z, 38.32
2022-09-22T07:07:21.772Z, 38.30
2022-09-22T07:08:21.850Z, 38.28
2022-09-22T07:09:21.873Z, 38.30
2022-09-22T07:10:21.847Z, 38.28
2022-09-22T07:11:21.860Z, 38.22
2022-09-22T07:12:21.923Z, 38.23
2022-09-22T07:13:21.962Z, 38.24
2022-09-22T07:14:22.006Z, 38.17
2022-09-22T07:15:22.019Z, 38.23
2022-09-22T07:16:22.209Z, 38.19
2022-09-22T07:17:22.107Z, 38.23
2022-09-22T07:18:22.119Z, 38.27
2022-09-22T07:19:22.184Z, 38.25
2022-09-22T07:20:22.186Z, 38.21
2022-09-22T07:21:22.280Z, 38.20
2022-09-22T07:22:22.277Z, 38.18
2022-09-22T07:23:22.321Z, 38.21
2022-09-22T07:24:22.361Z, 38.20
2022-09-22T07:25:22.374Z, 38.18
2022-09-22T07:26:22.403Z, 38.21
2022-09-22T07:27:22.484Z, 38.15
2022-09-22T07:28:22.545Z, 38.13
2022-09-22T07:29:22.526Z, 38.17
2022-09-22T07:30:22.644Z, 38.16
2022-09-22T07:31:27.794Z, 38.09
2022-09-22T07:32:22.618Z, 38.15
2022-09-22T07:33:22.684Z, 38.16
2022-09-22T07:34:22.684Z, 38.11
2022-09-22T07:35:22.796Z, 38.11
2022-09-22T07:36:22.754Z, 38.10
2022-09-22T07:37:22.839Z, 38.16
2022-09-22T07:38:22.815Z, 38.14
2022-09-22T07:39:22.851Z, 38.07
2022-09-22T07:40:23.131Z, 38.03
2022-09-22T07:41:22.968Z, 38.03
2022-09-22T07:42:22.989Z, 38.00
2022-09-22T07:43:23.020Z, 38.02
2022-09-22T07:44:23.030Z, 37.99
2022-09-22T07:45:23.154Z, 37.97
2022-09-22T07:46:23.164Z, 38.01
2022-09-22T07:47:23.129Z, 38.06
2022-09-22T07:48:23.181Z, 38.04
2022-09-22T07:49:23.165Z, 38.04
2022-09-22T07:50:23.278Z, 37.99
2022-09-22T07:51:23.267Z, 37.96
2022-09-22T07:52:23.291Z, 38.00
2022-09-22T07:53:23.379Z, 37.98
2022-09-22T07:54:23.372Z, 38.04
2022-09-22T07:55:23.458Z, 38.03
2022-09-22T07:56:23.474Z, 37.95
2022-09-22T07:57:23.464Z, 38.00
2022-09-22T07:58:23.548Z, 37.97
2022-09-22T07:59:23.603Z, 37.98
2022-09-22T08:00:23.648Z, 38.00
2022-09-22T08:01:23.684Z, 37.98
2022-09-22T08:02:23.718Z, 37.97
2022-09-22T08:03:23.663Z, 37.96
2022-09-22T08:04:23.741Z, 37.87
2022-09-22T08:05:23.806Z, 37.89
2022-09-22T08:06:24.080Z, 37.94
2022-09-22T08:07:23.811Z, 37.93
2022-09-22T08:08:23.895Z, 37.92
2022-09-22T08:09:23.921Z, 37.90
2022-09-22T08:10:23.907Z, 37.86
2022-09-22T08:11:23.990Z, 37.86
2022-09-22T08:12:23.991Z, 37.86
2022-09-22T08:13:23.975Z, 37.85
2022-09-22T08:14:24.430Z, 37.84
2022-09-22T08:15:27.109Z, 37.86
2022-09-22T08:16:24.214Z, 37.83
2022-09-22T08:17:24.136Z, 37.83
2022-09-22T08:18:24.134Z, 37.85
2022-09-22T08:19:24.272Z, 37.77
2022-09-22T08:20:24.260Z, 37.76
2022-09-22T08:21:24.339Z, 37.76
2022-09-22T08:22:24.365Z, 37.79
2022-09-22T08:23:24.327Z, 37.77
2022-09-22T08:24:24.413Z, 37.75
2022-09-22T08:25:24.440Z, 37.80
2022-09-22T08:26:24.428Z, 37.83
2022-09-22T08:27:24.442Z, 37.79
2022-09-22T08:28:24.496Z, 37.79
2022-09-22T08:29:24.621Z, 37.83
2022-09-22T08:30:24.590Z, 37.82
2022-09-22T08:31:24.662Z, 37.81
2022-09-22T08:32:24.606Z, 37.76
2022-09-22T08:33:24.675Z, 37.73
2022-09-22T08:34:24.700Z, 37.67
2022-09-22T08:35:24.799Z, 37.67
2022-09-22T08:36:24.804Z, 37.64
2022-09-22T08:37:24.896Z, 37.73
2022-09-22T08:38:24.904Z, 37.70
2022-09-22T08:39:24.895Z, 37.61
2022-09-22T08:40:25.047Z, 37.62
2022-09-22T08:41:24.963Z, 37.61
2022-09-22T08:42:24.981Z, 37.66
2022-09-22T08:43:25.091Z, 37.66
2022-09-22T08:44:25.137Z, 37.65
2022-09-22T08:45:27.122Z, 37.66
2022-09-22T08:46:25.184Z, 37.64
2022-09-22T08:47:25.128Z, 37.66
2022-09-22T08:48:25.147Z, 37.62
2022-09-22T08:49:25.252Z, 37.65
2022-09-22T08:50:25.284Z, 37.61
2022-09-22T08:51:25.307Z, 37.63
2022-09-22T08:52:25.325Z, 37.65
2022-09-22T08:53:25.355Z, 37.62
2022-09-22T08:54:25.470Z, 37.62
2022-09-22T08:55:25.435Z, 37.59
2022-09-22T08:56:25.469Z, 37.61
2022-09-22T08:57:25.484Z, 37.59
2022-09-22T08:58:25.513Z, 37.55
2022-09-22T08:59:25.584Z, 37.56
2022-09-22T09:00:25.689Z, 37.60
2022-09-22T09:01:25.729Z, 37.60
2022-09-22T09:02:25.704Z, 37.55
2022-09-22T09:03:25.681Z, 37.52
2022-09-22T09:04:25.778Z, 37.53
2022-09-22T09:05:25.761Z, 37.53
2022-09-22T09:06:25.798Z, 37.55
2022-09-22T09:07:25.905Z, 37.49
2022-09-22T09:08:25.916Z, 37.52
2022-09-22T09:09:25.899Z, 37.55
2022-09-22T09:10:25.914Z, 37.49
2022-09-22T09:11:26.024Z, 37.44
2022-09-22T09:12:25.969Z, 37.49
2022-09-22T09:13:26.017Z, 37.51
2022-09-22T09:14:26.122Z, 37.46
2022-09-22T09:15:26.112Z, 37.51
2022-09-22T09:16:26.131Z, 37.51
2022-09-22T09:17:26.191Z, 37.48
2022-09-22T09:18:26.182Z, 37.45
2022-09-22T09:19:26.206Z, 37.46
2022-09-22T09:20:26.252Z, 37.46
2022-09-22T09:21:26.375Z, 37.39
2022-09-22T09:22:26.343Z, 37.42
2022-09-22T09:25:22.113Z, 37.44
2022-09-22T09:25:27.790Z, 37.38
2022-09-22T09:26:26.474Z, 37.40
2022-09-22T09:27:26.501Z, 37.39
2022-09-22T09:28:28.009Z, 37.38
2022-09-22T09:29:26.632Z, 37.42
2022-09-22T09:30:26.607Z, 37.39
2022-09-22T09:31:26.718Z, 37.36
2022-09-22T09:32:26.685Z, 37.40
2022-09-22T09:33:26.724Z, 37.33
2022-09-22T09:34:26.743Z, 37.35
2022-09-22T09:35:26.941Z, 37.36
2022-09-22T09:36:26.806Z, 37.33
2022-09-22T09:37:26.856Z, 37.32
2022-09-22T09:38:26.890Z, 37.31
2022-09-22T09:39:26.923Z, 37.28
2022-09-22T09:40:26.996Z, 37.30
2022-09-22T09:41:27.034Z, 37.31
2022-09-22T09:42:27.079Z, 37.29
2022-09-22T09:43:27.129Z, 37.29
2022-09-22T09:44:27.182Z, 37.29
2022-09-22T09:45:27.222Z, 37.28
2022-09-22T09:46:27.283Z, 37.32
2022-09-22T09:47:27.228Z, 37.29
2022-09-22T09:48:27.268Z, 37.29
2022-09-22T09:49:27.315Z, 37.30
2022-09-22T09:50:27.517Z, 37.23
2022-09-22T09:51:27.383Z, 37.22
2022-09-22T09:52:27.401Z, 37.29
2022-09-22T09:53:27.478Z, 37.26
2022-09-22T09:54:27.490Z, 37.24
2022-09-22T09:55:27.810Z, 37.27
2022-09-22T09:56:27.594Z, 37.26
2022-09-22T09:57:28.091Z, 37.27
2022-09-22T09:58:27.626Z, 37.27
2022-09-22T09:59:27.634Z, 37.24
2022-09-22T10:00:27.670Z, 37.23
2022-09-22T10:01:27.741Z, 37.18
2022-09-22T10:02:27.743Z, 37.19
2022-09-22T10:03:27.864Z, 37.23
2022-09-22T10:04:27.885Z, 37.23
2022-09-22T10:05:27.839Z, 37.19
2022-09-22T10:06:27.878Z, 37.20
2022-09-22T10:07:27.970Z, 37.16
2022-09-22T10:08:28.022Z, 37.17
2022-09-22T10:09:28.047Z, 37.15
2022-09-22T10:10:28.088Z, 37.15
2022-09-22T10:11:28.146Z, 37.10
2022-09-22T10:12:28.114Z, 37.15
2022-09-22T10:13:28.162Z, 37.11
2022-09-22T10:14:28.168Z, 37.10
2022-09-22T10:15:28.271Z, 37.10
2022-09-22T10:16:28.268Z, 37.13
2022-09-22T10:17:28.335Z, 37.15
2022-09-22T10:18:28.313Z, 37.11
2022-09-22T10:19:28.380Z, 37.09
2022-09-22T10:20:28.426Z, 37.07
2022-09-22T10:21:28.487Z, 37.10
2022-09-22T10:22:28.456Z, 37.09
2022-09-22T10:23:28.553Z, 37.09
2022-09-22T10:24:28.563Z, 37.09
2022-09-22T10:25:28.545Z, 37.05
2022-09-22T10:26:28.554Z, 37.08
2022-09-22T10:27:28.632Z, 37.09
2022-09-22T10:28:28.625Z, 37.01
2022-09-22T10:29:28.672Z, 37.01
2022-09-22T10:30:28.718Z, 37.02
2022-09-22T10:31:28.854Z, 37.05
2022-09-22T10:32:28.844Z, 37.04
2022-09-22T10:33:28.843Z, 37.03
2022-09-22T10:34:28.914Z, 36.99
2022-09-22T10:35:28.879Z, 37.01
2022-09-22T10:36:28.905Z, 37.01
2022-09-22T10:37:28.946Z, 36.98
2022-09-22T10:38:29.038Z, 36.99
2022-09-22T10:39:29.079Z, 37.01
2022-09-22T10:40:29.151Z, 36.96
2022-09-22T10:41:29.085Z, 36.98
2022-09-22T10:42:29.168Z, 36.89
2022-09-22T10:43:29.167Z, 36.87
2022-09-22T10:44:40.947Z, 36.90
2022-09-22T10:45:29.213Z, 36.92
2022-09-22T10:46:29.344Z, 36.92
2022-09-22T10:47:29.269Z, 36.95
2022-09-22T10:48:29.292Z, 36.90
2022-09-22T10:49:29.325Z, 36.89
2022-09-22T10:50:29.338Z, 36.90
2022-09-22T10:51:29.438Z, 36.90
2022-09-22T10:52:29.459Z, 36.87
2022-09-22T10:53:29.489Z, 36.85
2022-09-22T10:54:29.505Z, 36.80
2022-09-22T10:55:29.573Z, 36.85
2022-09-22T10:56:29.566Z, 36.81
2022-09-22T10:57:29.607Z, 36.79
2022-09-22T10:58:29.655Z, 36.82
2022-09-22T10:59:29.672Z, 36.81
2022-09-22T11:00:29.718Z, 36.81
2022-09-22T11:01:29.801Z, 36.84
2022-09-22T11:02:29.763Z, 36.80
2022-09-22T11:03:29.776Z, 36.79
2022-09-22T11:04:29.973Z, 36.80
2022-09-22T11:05:29.895Z, 36.80
2022-09-22T11:06:29.925Z, 36.79
2022-09-22T11:07:29.962Z, 36.79
2022-09-22T11:08:30.012Z, 36.78
2022-09-22T11:09:30.064Z, 36.78
2022-09-22T11:10:30.060Z, 36.81
2022-09-22T11:11:30.049Z, 36.77
2022-09-22T11:12:30.060Z, 36.79
2022-09-22T11:13:30.093Z, 36.80
2022-09-22T11:14:30.123Z, 36.76
2022-09-22T11:15:30.274Z, 36.82
2022-09-22T11:16:30.245Z, 36.76
2022-09-22T11:17:30.246Z, 36.74
2022-09-22T11:18:30.278Z, 36.76
2022-09-22T11:19:30.299Z, 36.69
2022-09-22T11:20:30.352Z, 36.69
2022-09-22T11:21:30.370Z, 36.69
2022-09-22T11:22:30.413Z, 36.68
2022-09-22T11:23:30.508Z, 36.70
2022-09-22T11:24:30.529Z, 36.68
2022-09-22T11:25:30.518Z, 36.67
2022-09-22T11:26:30.549Z, 36.66
2022-09-22T11:27:30.589Z, 36.66
2022-09-22T11:28:30.613Z, 36.66
2022-09-22T11:29:30.655Z, 36.60
2022-09-22T11:30:30.685Z, 36.62
2022-09-22T11:31:30.711Z, 36.62
2022-09-22T11:32:30.730Z, 36.64
2022-09-22T11:33:30.811Z, 36.67
2022-09-22T11:34:30.809Z, 36.70
2022-09-22T11:35:30.825Z, 36.66
2022-09-22T11:36:30.870Z, 36.64
2022-09-22T11:37:30.897Z, 36.59
2022-09-22T11:38:30.927Z, 36.60
2022-09-22T11:39:31.030Z, 36.60
2022-09-22T11:40:31.102Z, 36.58
2022-09-22T11:41:31.079Z, 36.55
2022-09-22T11:42:31.106Z, 36.59
2022-09-22T11:43:31.095Z, 36.56
2022-09-22T11:44:31.119Z, 36.55
2022-09-22T11:45:31.176Z, 36.51
2022-09-22T11:46:31.241Z, 36.50
2022-09-22T11:47:31.238Z, 36.52
2022-09-22T11:48:31.326Z, 36.50
2022-09-22T11:49:31.363Z, 36.49
2022-09-22T11:50:31.338Z, 36.52
2022-09-22T11:51:31.411Z, 36.53
2022-09-22T11:52:31.390Z, 36.51
2022-09-22T11:53:31.436Z, 36.54
2022-09-22T11:54:31.440Z, 36.56
2022-09-22T11:55:31.561Z, 36.54
2022-09-22T11:56:31.521Z, 36.53
2022-09-22T11:57:31.609Z, 36.47
2022-09-22T11:58:31.624Z, 36.48
2022-09-22T11:59:31.674Z, 36.48
2022-09-22T12:00:31.740Z, 36.47
2022-09-22T12:01:31.774Z, 36.53
2022-09-22T12:02:31.964Z, 36.52
2022-09-22T12:03:31.978Z, 36.47
2022-09-22T12:04:31.821Z, 36.49
2022-09-22T12:05:31.853Z, 36.52
2022-09-22T12:06:31.950Z, 36.49
2022-09-22T12:07:31.910Z, 36.47
2022-09-22T12:08:31.952Z, 36.41
2022-09-22T12:09:35.761Z, 36.40
2022-09-22T12:10:32.062Z, 36.45
2022-09-22T12:11:32.109Z, 36.44
2022-09-22T12:12:32.108Z, 36.39
2022-09-22T12:13:32.124Z, 36.44
2022-09-22T12:14:32.123Z, 36.38
2022-09-22T12:15:32.179Z, 36.33
2022-09-22T12:16:32.265Z, 36.39
2022-09-22T12:17:32.296Z, 36.35
2022-09-22T12:18:32.289Z, 36.36
2022-09-22T12:19:32.342Z, 36.39
2022-09-22T12:20:32.308Z, 36.36
2022-09-22T12:21:32.409Z, 36.32
2022-09-22T12:22:32.429Z, 36.32
2022-09-22T12:23:32.399Z, 36.30
2022-09-22T12:24:32.482Z, 36.34
2022-09-22T12:25:47.552Z, 36.36
2022-09-22T12:26:32.571Z, 36.31
2022-09-22T12:27:32.573Z, 36.32
2022-09-22T12:28:32.617Z, 36.27
2022-09-22T12:29:32.601Z, 36.25